createdAt,value
2018-05-18T00:00:40.112Z,965.24
2018-05-18T00:01:40.113Z,965.23
2018-05-18T00:02:40.687Z,965.24
2018-05-18T00:03:40.128Z,965.20
2018-05-18T00:04:40.116Z,965.23
2018-05-18T00:05:40.108Z,965.21
2018-05-18T00:06:40.110Z,965.21
2018-05-18T00:07:40.120Z,965.20
2018-05-18T00:08:40.107Z,965.20
2018-05-18T00:09:40.135Z,965.24
2018-05-18T00:10:40.103Z,965.24
2018-05-18T00:11:40.107Z,965.24
2018-05-18T00:12:40.103Z,965.21
2018-05-18T00:13:40.102Z,965.25
2018-05-18T00:14:40.102Z,965.18
2018-05-18T00:15:40.099Z,965.20
2018-05-18T00:16:40.100Z,965.24
2018-05-18T00:17:40.099Z,965.23
2018-05-18T00:18:40.102Z,965.26
2018-05-18T00:19:40.102Z,965.28
2018-05-18T00:20:40.098Z,965.27
2018-05-18T00:21:40.096Z,965.25
2018-05-18T00:22:40.096Z,965.32
2018-05-18T00:23:40.095Z,965.29
2018-05-18T00:24:40.091Z,965.29
2018-05-18T00:25:40.094Z,965.32
2018-05-18T00:26:40.121Z,965.32
2018-05-18T00:27:40.200Z,965.30
2018-05-18T00:28:40.141Z,965.30
2018-05-18T00:29:40.092Z,965.33
2018-05-18T00:30:40.089Z,965.35
2018-05-18T00:31:40.092Z,965.27
2018-05-18T00:32:40.090Z,965.36
2018-05-18T00:33:40.084Z,965.31
2018-05-18T00:34:40.122Z,965.33
2018-05-18T00:35:40.094Z,965.33
2018-05-18T00:36:40.117Z,965.31
2018-05-18T00:37:40.091Z,965.32
2018-05-18T00:38:40.082Z,965.28
2018-05-18T00:39:40.081Z,965.30
2018-05-18T00:40:40.086Z,965.25
2018-05-18T00:41:40.087Z,965.31
2018-05-18T00:42:40.081Z,965.23
2018-05-18T00:43:40.079Z,965.25
2018-05-18T00:44:40.084Z,965.26
2018-05-18T00:45:40.077Z,965.26
2018-05-18T00:46:40.077Z,965.23
2018-05-18T00:47:40.074Z,965.25
2018-05-18T00:48:40.075Z,965.24
2018-05-18T00:49:40.074Z,965.26
2018-05-18T00:50:40.076Z,965.24
2018-05-18T00:51:40.072Z,965.24
2018-05-18T00:52:40.104Z,965.26
2018-05-18T00:53:40.078Z,965.25
2018-05-18T00:54:40.070Z,965.21
2018-05-18T00:55:40.072Z,965.22
2018-05-18T00:56:40.068Z,965.23
2018-05-18T00:57:40.068Z,965.21
2018-05-18T00:58:40.067Z,965.22
2018-05-18T00:59:40.067Z,965.18
2018-05-18T01:00:40.076Z,965.18
2018-05-18T01:01:40.063Z,965.19
2018-05-18T01:02:40.063Z,965.17
2018-05-18T01:03:40.072Z,965.19
2018-05-18T01:04:40.061Z,965.13
2018-05-18T01:05:40.090Z,965.14
2018-05-18T01:06:40.062Z,965.16
2018-05-18T01:07:40.061Z,965.16
2018-05-18T01:08:40.059Z,965.15
2018-05-18T01:09:40.057Z,965.14
2018-05-18T01:10:40.056Z,965.15
2018-05-18T01:11:40.059Z,965.13
2018-05-18T01:12:40.056Z,965.13
2018-05-18T01:13:40.055Z,965.12
2018-05-18T01:14:40.077Z,965.10
2018-05-18T01:15:40.056Z,965.09
2018-05-18T01:16:40.127Z,965.10
2018-05-18T01:17:40.051Z,965.10
2018-05-18T01:18:40.052Z,965.04
2018-05-18T01:19:40.050Z,965.08
2018-05-18T01:20:40.047Z,965.14
2018-05-18T01:21:40.047Z,965.12
2018-05-18T01:22:40.046Z,965.13
2018-05-18T01:23:40.049Z,965.10
2018-05-18T01:24:40.044Z,965.13
2018-05-18T01:25:40.045Z,965.10
2018-05-18T01:26:40.042Z,965.13
2018-05-18T01:27:40.052Z,965.10
2018-05-18T01:28:40.042Z,965.10
2018-05-18T01:29:40.040Z,965.08
2018-05-18T01:30:40.741Z,965.10
2018-05-18T01:31:40.039Z,965.05
2018-05-18T01:32:40.040Z,965.04
2018-05-18T01:33:40.040Z,965.08
2018-05-18T01:34:40.036Z,965.08
2018-05-18T01:35:40.038Z,965.05
2018-05-18T01:36:40.055Z,965.08
2018-05-18T01:37:40.699Z,965.05
2018-05-18T01:38:40.033Z,965.08
2018-05-18T01:39:40.033Z,965.12
2018-05-18T01:40:40.050Z,965.10
2018-05-18T01:41:40.031Z,965.10
2018-05-18T01:42:40.030Z,965.12
2018-05-18T01:43:40.059Z,965.12
2018-05-18T01:44:40.029Z,965.13
2018-05-18T01:45:40.030Z,965.14
2018-05-18T01:46:40.032Z,965.15
2018-05-18T01:47:40.063Z,965.13
2018-05-18T01:48:40.028Z,965.18
2018-05-18T01:49:40.025Z,965.18
2018-05-18T01:50:40.022Z,965.18
2018-05-18T01:51:40.023Z,965.19
2018-05-18T01:52:40.021Z,965.20
2018-05-18T01:53:40.022Z,965.19
2018-05-18T01:54:40.044Z,965.22
2018-05-18T01:55:40.020Z,965.22
2018-05-18T01:56:40.025Z,965.18
2018-05-18T01:57:40.069Z,965.13
2018-05-18T01:58:40.017Z,965.17
2018-05-18T01:59:40.016Z,965.17
2018-05-18T02:00:40.014Z,965.21
2018-05-18T02:01:40.018Z,965.13
2018-05-18T02:02:40.016Z,965.21
2018-05-18T02:03:40.013Z,965.19
2018-05-18T02:04:40.012Z,965.21
2018-05-18T02:05:40.041Z,965.16
2018-05-18T02:06:40.010Z,965.18
2018-05-18T02:07:40.008Z,965.16
2018-05-18T02:08:40.007Z,965.14
2018-05-18T02:09:40.042Z,965.15
2018-05-18T02:10:40.005Z,965.15
2018-05-18T02:11:40.006Z,965.19
2018-05-18T02:12:40.003Z,965.17
2018-05-18T02:13:40.002Z,965.19
2018-05-18T02:14:40.001Z,965.18
2018-05-18T02:15:40.005Z,965.18
2018-05-18T02:16:40.010Z,965.19
2018-05-18T02:17:40.023Z,965.16
2018-05-18T02:18:40.002Z,965.14
2018-05-18T02:19:40.000Z,965.16
2018-05-18T02:20:40.000Z,965.13
2018-05-18T02:21:39.994Z,965.16
2018-05-18T02:22:39.994Z,965.18
2018-05-18T02:23:39.999Z,965.18
2018-05-18T02:24:39.992Z,965.19
2018-05-18T02:25:39.995Z,965.18
2018-05-18T02:26:40.016Z,965.16
2018-05-18T02:27:40.015Z,965.18
2018-05-18T02:28:39.991Z,965.15
2018-05-18T02:29:39.987Z,965.14
2018-05-18T02:30:39.987Z,965.15
2018-05-18T02:31:40.029Z,965.13
2018-05-18T02:32:40.018Z,965.12
2018-05-18T02:33:40.018Z,965.12
2018-05-18T02:34:39.985Z,965.13
2018-05-18T02:35:39.984Z,965.10
2018-05-18T02:36:39.980Z,965.11
2018-05-18T02:37:39.985Z,965.07
2018-05-18T02:38:39.992Z,965.11
2018-05-18T02:39:39.981Z,965.12
2018-05-18T02:40:39.980Z,965.10
2018-05-18T02:41:39.980Z,965.11
2018-05-18T02:42:39.978Z,965.07
2018-05-18T02:43:39.978Z,965.07
2018-05-18T02:44:40.006Z,965.10
2018-05-18T02:45:40.015Z,965.08
2018-05-18T02:46:39.976Z,965.09
2018-05-18T02:47:39.973Z,965.11
2018-05-18T02:48:40.041Z,965.11
2018-05-18T02:49:40.004Z,965.15
2018-05-18T02:50:39.976Z,965.13
2018-05-18T02:51:39.973Z,965.15
2018-05-18T02:52:39.977Z,965.14
2018-05-18T02:53:39.970Z,965.19
2018-05-18T02:54:40.055Z,965.17
2018-05-18T02:55:39.968Z,965.18
2018-05-18T02:56:39.963Z,965.15
2018-05-18T02:57:39.962Z,965.17
2018-05-18T02:58:39.964Z,965.13
2018-05-18T02:59:39.968Z,965.17
2018-05-18T03:00:39.957Z,965.12
2018-05-18T03:01:39.960Z,965.12
2018-05-18T03:02:39.960Z,965.11
2018-05-18T03:03:39.956Z,965.12
2018-05-18T03:04:39.954Z,965.11
2018-05-18T03:05:39.955Z,965.09
2018-05-18T03:06:39.952Z,965.09
2018-05-18T03:07:39.951Z,965.09
2018-05-18T03:08:39.952Z,965.11
2018-05-18T03:09:39.950Z,965.11
2018-05-18T03:10:39.954Z,965.13
2018-05-18T03:11:39.960Z,965.11
2018-05-18T03:12:39.947Z,965.07
2018-05-18T03:13:39.946Z,965.12
2018-05-18T03:14:39.947Z,965.12
2018-05-18T03:15:39.955Z,965.13
2018-05-18T03:16:39.944Z,965.14
2018-05-18T03:17:39.949Z,965.17
2018-05-18T03:18:39.965Z,965.18
2018-05-18T03:19:39.979Z,965.22
2018-05-18T03:20:39.975Z,965.21
2018-05-18T03:21:39.956Z,965.19
2018-05-18T03:22:39.966Z,965.19
2018-05-18T03:23:39.941Z,965.20
2018-05-18T03:24:39.960Z,965.18
2018-05-18T03:25:39.960Z,965.17
2018-05-18T03:26:39.933Z,965.20
2018-05-18T03:27:39.932Z,965.16
2018-05-18T03:28:39.937Z,965.19
2018-05-18T03:29:39.933Z,965.17
2018-05-18T03:30:39.937Z,965.18
2018-05-18T03:31:39.937Z,965.16
2018-05-18T03:32:39.949Z,965.15
2018-05-18T03:33:39.927Z,965.17
2018-05-18T03:34:39.926Z,965.13
2018-05-18T03:35:39.924Z,965.10
2018-05-18T03:36:39.923Z,965.14
2018-05-18T03:37:39.922Z,965.11
2018-05-18T03:38:39.925Z,965.14
2018-05-18T03:39:39.923Z,965.10
2018-05-18T03:40:39.921Z,965.16
2018-05-18T03:41:39.919Z,965.18
2018-05-18T03:42:39.917Z,965.18
2018-05-18T03:43:39.919Z,965.16
2018-05-18T03:44:39.915Z,965.16
2018-05-18T03:45:39.921Z,965.20
2018-05-18T03:46:39.918Z,965.24
2018-05-18T03:47:39.912Z,965.24
2018-05-18T03:48:39.912Z,965.22
2018-05-18T03:49:39.938Z,965.24
2018-05-18T03:50:39.928Z,965.25
2018-05-18T03:51:39.925Z,965.24
2018-05-18T03:52:39.909Z,965.24
2018-05-18T03:53:39.908Z,965.29
2018-05-18T03:54:39.907Z,965.28
2018-05-18T03:55:39.908Z,965.27
2018-05-18T03:56:39.907Z,965.27
2018-05-18T03:57:39.904Z,965.29
2018-05-18T03:58:39.909Z,965.30
2018-05-18T03:59:39.911Z,965.33
2018-05-18T04:00:39.902Z,965.32
2018-05-18T04:01:39.900Z,965.32
2018-05-18T04:02:39.898Z,965.31
2018-05-18T04:03:39.897Z,965.37
2018-05-18T04:04:39.895Z,965.33
2018-05-18T04:05:39.897Z,965.36
2018-05-18T04:06:39.896Z,965.35
2018-05-18T04:07:39.894Z,965.34
2018-05-18T04:08:39.895Z,965.37
2018-05-18T04:09:39.892Z,965.40
2018-05-18T04:10:39.890Z,965.46
2018-05-18T04:11:39.890Z,965.43
2018-05-18T04:12:39.886Z,965.47
2018-05-18T04:13:39.887Z,965.49
2018-05-18T04:14:39.891Z,965.46
2018-05-18T04:15:39.888Z,965.47
2018-05-18T04:16:39.885Z,965.50
2018-05-18T04:17:39.887Z,965.47
2018-05-18T04:18:39.881Z,965.46
2018-05-18T04:19:39.881Z,965.47
2018-05-18T04:20:39.879Z,965.46
2018-05-18T04:21:39.877Z,965.48
2018-05-18T04:22:39.876Z,965.49
2018-05-18T04:23:39.878Z,965.45
2018-05-18T04:24:39.884Z,965.45
2018-05-18T04:25:39.888Z,965.43
2018-05-18T04:26:39.882Z,965.46
2018-05-18T04:27:39.873Z,965.52
2018-05-18T04:28:39.870Z,965.50
2018-05-18T04:29:39.874Z,965.52
2018-05-18T04:30:39.870Z,965.49
2018-05-18T04:31:39.887Z,965.48
2018-05-18T04:32:39.868Z,965.48
2018-05-18T04:33:39.882Z,965.51
2018-05-18T04:34:39.869Z,965.48
2018-05-18T04:35:39.875Z,965.50
2018-05-18T04:36:39.862Z,965.49
2018-05-18T04:37:39.882Z,965.49
2018-05-18T04:38:39.887Z,965.46
2018-05-18T04:39:39.887Z,965.49
2018-05-18T04:40:39.859Z,965.49
2018-05-18T04:41:39.872Z,965.49
2018-05-18T04:42:39.859Z,965.50
2018-05-18T04:43:39.856Z,965.52
2018-05-18T04:44:39.856Z,965.51
2018-05-18T04:45:39.908Z,965.56
2018-05-18T04:46:39.926Z,965.54
2018-05-18T04:47:39.934Z,965.54
2018-05-18T04:48:39.907Z,965.56
2018-05-18T04:49:39.904Z,965.57
2018-05-18T04:50:39.873Z,965.57
2018-05-18T04:51:39.849Z,965.56
2018-05-18T04:52:39.914Z,965.60
2018-05-18T04:53:39.957Z,965.58
2018-05-18T04:54:39.903Z,965.59
2018-05-18T04:55:39.850Z,965.63
2018-05-18T04:56:39.944Z,965.57
2018-05-18T04:57:39.894Z,965.61
2018-05-18T04:58:39.900Z,965.62
2018-05-18T04:59:39.883Z,965.57
2018-05-18T05:00:39.895Z,965.61
2018-05-18T05:01:39.957Z,965.67
2018-05-18T05:02:39.863Z,965.65
2018-05-18T05:03:52.680Z,965.68
2018-05-18T05:05:37.425Z,965.70
2018-05-18T05:06:37.322Z,965.68
2018-05-18T05:07:37.363Z,965.76
2018-05-18T05:08:38.763Z,965.72
2018-05-18T05:09:37.349Z,965.73
2018-05-18T05:10:37.449Z,965.71
2018-05-18T05:13:11.466Z,965.76
2018-05-18T05:14:11.398Z,965.77
2018-05-18T05:16:10.952Z,965.82
2018-05-18T05:17:10.796Z,965.84
2018-05-18T05:18:10.714Z,965.86
2018-05-18T05:19:10.691Z,965.81
2018-05-18T05:20:10.722Z,965.81
2018-05-18T05:21:10.719Z,965.85
2018-05-18T05:22:10.783Z,965.84
2018-05-18T05:23:10.755Z,965.83
2018-05-18T05:24:10.867Z,965.83
2018-05-18T05:25:10.765Z,965.81
2018-05-18T05:26:10.827Z,965.83
2018-05-18T05:27:10.770Z,965.82
2018-05-18T05:28:12.419Z,965.80
2018-05-18T05:29:11.115Z,965.77
2018-05-18T05:30:12.391Z,965.83
2018-05-18T05:31:10.710Z,965.83
2018-05-18T05:32:12.379Z,965.79
2018-05-18T05:33:10.692Z,965.81
2018-05-18T05:34:10.819Z,965.80
2018-05-18T05:35:10.821Z,965.82
2018-05-18T05:36:10.673Z,965.83
2018-05-18T05:37:10.742Z,965.87
2018-05-18T05:38:10.824Z,965.83
2018-05-18T05:39:12.360Z,965.82
2018-05-18T05:40:10.845Z,965.84
2018-05-18T05:41:10.773Z,965.78
2018-05-18T05:42:12.387Z,965.85
2018-05-18T05:43:10.743Z,965.82
2018-05-18T05:44:10.740Z,965.82
2018-05-18T05:45:10.705Z,965.84
2018-05-18T05:46:10.966Z,965.84
2018-05-18T05:47:10.769Z,965.84
2018-05-18T05:48:10.659Z,965.84
2018-05-18T05:49:10.762Z,965.85
2018-05-18T05:50:10.771Z,965.81
2018-05-18T05:51:12.325Z,965.81
2018-05-18T05:52:10.692Z,965.83
2018-05-18T05:53:10.892Z,965.84
2018-05-18T05:54:10.819Z,965.88
2018-05-18T05:55:10.804Z,965.83
2018-05-18T05:56:10.736Z,965.82
2018-05-18T05:57:10.834Z,965.85
2018-05-18T05:58:10.880Z,965.89
2018-05-18T05:59:10.857Z,965.88
2018-05-18T06:00:10.731Z,965.92
2018-05-18T06:01:10.890Z,965.88
2018-05-18T06:02:12.479Z,965.87
2018-05-18T06:03:13.294Z,965.96
2018-05-18T06:04:12.473Z,965.94
2018-05-18T06:05:10.740Z,965.97
2018-05-18T06:06:10.907Z,965.99
2018-05-18T06:07:12.621Z,966.01
2018-05-18T06:08:10.743Z,966.04
2018-05-18T06:09:11.815Z,966.02
2018-05-18T06:10:10.863Z,966.02
2018-05-18T06:11:12.403Z,966.01
2018-05-18T06:12:10.950Z,965.99
2018-05-18T06:13:10.775Z,966.04
2018-05-18T06:14:12.522Z,966.05
2018-05-18T06:15:10.771Z,966.02
2018-05-18T06:16:12.543Z,966.02
2018-05-18T06:17:12.376Z,966.04
2018-05-18T06:18:12.448Z,966.05
2018-05-18T06:19:12.382Z,966.02
2018-05-18T06:20:12.936Z,966.03
2018-05-18T06:21:12.701Z,966.03
2018-05-18T06:22:16.852Z,966.08
2018-05-18T06:23:10.961Z,966.08
2018-05-18T06:24:13.393Z,966.09
2018-05-18T06:25:13.460Z,966.11
2018-05-18T06:26:12.519Z,966.11
2018-05-18T06:27:10.927Z,966.10
2018-05-18T06:28:12.486Z,966.14
2018-05-18T06:29:10.856Z,966.07
2018-05-18T06:30:10.793Z,966.10
2018-05-18T06:31:10.830Z,966.12
2018-05-18T06:32:27.788Z,966.14
2018-05-18T06:33:11.985Z,966.16
2018-05-18T06:34:11.921Z,966.12
2018-05-18T06:35:12.025Z,966.18
2018-05-18T06:36:21.915Z,966.16
2018-05-18T06:38:09.629Z,966.20
2018-05-18T06:40:38.359Z,966.23
2018-05-18T06:41:37.275Z,966.25
2018-05-18T06:42:37.173Z,966.27
2018-05-18T06:43:37.199Z,966.23
2018-05-18T06:44:37.307Z,966.23
2018-05-18T06:45:38.236Z,966.29
2018-05-18T06:47:05.445Z,966.27
2018-05-18T06:52:52.827Z,966.31
2018-05-18T06:53:39.759Z,966.36
2018-05-18T06:54:54.364Z,966.36
2018-05-18T06:56:46.207Z,966.34
2018-05-18T06:57:35.119Z,966.36
2018-05-18T06:58:59.878Z,966.35
2018-05-18T07:00:32.029Z,966.37
2018-05-18T07:01:31.122Z,966.39
2018-05-18T07:04:15.521Z,966.36
2018-05-18T07:05:37.834Z,966.34
2018-05-18T07:07:09.779Z,966.34
2018-05-18T07:08:18.393Z,966.33
2018-05-18T07:10:04.180Z,966.29
2018-05-18T07:11:04.164Z,966.35
2018-05-18T07:12:58.473Z,966.30
2018-05-18T07:13:58.433Z,966.35
2018-05-18T07:15:54.012Z,966.39
2018-05-18T07:16:54.459Z,966.38
2018-05-18T07:17:53.808Z,966.41
2018-05-18T07:18:53.793Z,966.42
2018-05-18T07:19:53.799Z,966.41
2018-05-18T07:20:53.816Z,966.39
2018-05-18T07:21:53.821Z,966.42
2018-05-18T07:22:53.782Z,966.37
2018-05-18T07:23:53.811Z,966.38
2018-05-18T07:24:53.880Z,966.41
2018-05-18T07:25:53.784Z,966.41
2018-05-18T07:26:53.872Z,966.37
2018-05-18T07:27:53.787Z,966.46
2018-05-18T07:28:54.510Z,966.42
2018-05-18T07:29:53.765Z,966.43
2018-05-18T07:30:53.753Z,966.42
2018-05-18T07:31:53.756Z,966.45
2018-05-18T07:32:53.752Z,966.44
2018-05-18T07:33:54.296Z,966.44
2018-05-18T07:36:35.673Z,966.47
2018-05-18T07:37:35.763Z,966.50
2018-05-18T07:39:30.037Z,966.46
2018-05-18T07:40:30.085Z,966.48
2018-05-18T07:42:24.577Z,966.55
2018-05-18T07:43:24.365Z,966.55
2018-05-18T07:45:18.764Z,966.56
2018-05-18T07:46:18.786Z,966.57
2018-05-18T07:47:18.787Z,966.54
2018-05-18T07:48:18.759Z,966.52
2018-05-18T07:49:18.724Z,966.56
2018-05-18T07:50:18.774Z,966.62
2018-05-18T07:51:18.780Z,966.57
2018-05-18T07:52:18.690Z,966.54
2018-05-18T07:53:18.693Z,966.58
2018-05-18T07:54:18.765Z,966.59
2018-05-18T07:55:18.690Z,966.58
2018-05-18T07:56:19.285Z,966.61
2018-05-18T07:57:18.695Z,966.60
2018-05-18T07:58:18.686Z,966.59
2018-05-18T07:59:18.684Z,966.55
2018-05-18T08:00:18.689Z,966.59
2018-05-18T08:01:18.685Z,966.58
2018-05-18T08:02:18.685Z,966.58
2018-05-18T08:03:18.684Z,966.59
2018-05-18T08:04:18.685Z,966.55
2018-05-18T08:05:18.681Z,966.58
2018-05-18T08:06:18.709Z,966.57
2018-05-18T08:07:18.681Z,966.57
2018-05-18T08:08:18.682Z,966.59
2018-05-18T08:09:18.684Z,966.58
2018-05-18T08:10:18.700Z,966.57
2018-05-18T08:11:18.676Z,966.55
2018-05-18T08:12:18.674Z,966.56
2018-05-18T08:13:18.675Z,966.59
2018-05-18T08:14:18.677Z,966.58
2018-05-18T08:15:18.675Z,966.61
2018-05-18T08:16:18.676Z,966.59
2018-05-18T08:17:18.675Z,966.63
2018-05-18T08:18:18.677Z,966.62
2018-05-18T08:19:18.677Z,966.63
2018-05-18T08:20:18.677Z,966.65
2018-05-18T08:21:18.671Z,966.63
2018-05-18T08:22:18.674Z,966.63
2018-05-18T08:23:18.705Z,966.62
2018-05-18T08:24:18.676Z,966.64
2018-05-18T08:25:18.678Z,966.67
2018-05-18T08:26:18.669Z,966.69
2018-05-18T08:27:18.716Z,966.70
2018-05-18T08:28:18.857Z,966.71
2018-05-18T08:29:18.670Z,966.73
2018-05-18T08:30:18.668Z,966.80
2018-05-18T08:31:18.669Z,966.75
2018-05-18T08:32:18.684Z,966.72
2018-05-18T08:33:18.686Z,966.77
2018-05-18T08:34:18.666Z,966.70
2018-05-18T08:35:18.665Z,966.72
2018-05-18T08:36:18.669Z,966.70
2018-05-18T08:37:18.702Z,966.70
2018-05-18T08:38:18.670Z,966.73
2018-05-18T08:39:18.667Z,966.70
2018-05-18T08:40:18.667Z,966.68
2018-05-18T08:41:18.672Z,966.74
2018-05-18T08:42:18.664Z,966.74
2018-05-18T08:43:18.666Z,966.73
2018-05-18T08:44:18.727Z,966.75
2018-05-18T08:45:18.666Z,966.71
2018-05-18T08:46:18.666Z,966.70
2018-05-18T08:47:18.662Z,966.74
2018-05-18T08:48:18.712Z,966.76
2018-05-18T08:49:18.686Z,966.77
2018-05-18T08:50:18.684Z,966.81
2018-05-18T08:51:18.664Z,966.76
2018-05-18T08:52:18.700Z,966.77
2018-05-18T08:53:18.688Z,966.76
2018-05-18T08:54:18.663Z,966.75
2018-05-18T08:55:18.663Z,966.73
2018-05-18T08:56:18.662Z,966.75
2018-05-18T08:57:18.663Z,966.77
2018-05-18T08:58:18.659Z,966.76
2018-05-18T08:59:18.665Z,966.76
2018-05-18T09:00:18.664Z,966.73
2018-05-18T09:01:18.660Z,966.74
2018-05-18T09:02:18.677Z,966.75
2018-05-18T09:03:18.695Z,966.74
2018-05-18T09:04:18.660Z,966.75
2018-05-18T09:05:18.679Z,966.73
2018-05-18T09:06:18.669Z,966.74
2018-05-18T09:07:18.706Z,966.69
2018-05-18T09:08:18.667Z,966.72
2018-05-18T09:09:18.666Z,966.74
2018-05-18T09:10:18.667Z,966.76
2018-05-18T09:11:18.665Z,966.72
2018-05-18T09:12:18.662Z,966.75
2018-05-18T09:13:18.663Z,966.78
2018-05-18T09:14:18.692Z,966.75
2018-05-18T09:15:18.663Z,966.73
2018-05-18T09:16:18.661Z,966.78
2018-05-18T09:17:18.666Z,966.75
2018-05-18T09:18:18.687Z,966.73
2018-05-18T09:19:18.668Z,966.77
2018-05-18T09:20:18.668Z,966.79
2018-05-18T09:21:18.670Z,966.75
2018-05-18T09:22:18.669Z,966.73
2018-05-18T09:23:18.668Z,966.70
2018-05-18T09:24:18.673Z,966.66
2018-05-18T09:25:18.667Z,966.74
2018-05-18T09:26:18.700Z,966.75
2018-05-18T09:27:18.674Z,966.74
2018-05-18T09:28:18.670Z,966.76
2018-05-18T09:29:18.674Z,966.77
2018-05-18T09:30:18.680Z,966.75
2018-05-18T09:31:18.708Z,966.75
2018-05-18T09:32:18.679Z,966.75
2018-05-18T09:35:42.900Z,966.73
2018-05-18T09:38:23.815Z,966.72
2018-05-18T09:39:34.371Z,966.72
2018-05-18T09:41:19.630Z,966.76
2018-05-18T09:42:19.572Z,966.75
2018-05-18T09:43:19.512Z,966.79
2018-05-18T09:44:19.664Z,966.78
2018-05-18T09:45:19.539Z,966.79
2018-05-18T09:46:19.525Z,966.78
2018-05-18T09:47:19.512Z,966.80
2018-05-18T09:48:19.693Z,966.84
2018-05-18T09:49:19.651Z,966.82
2018-05-18T09:50:19.564Z,966.82
2018-05-18T09:51:19.528Z,966.86
2018-05-18T09:52:19.541Z,966.86
2018-05-18T09:53:19.525Z,966.87
2018-05-18T09:54:19.683Z,966.93
2018-05-18T09:55:19.603Z,966.92
2018-05-18T09:56:19.525Z,966.90
2018-05-18T09:57:19.529Z,966.90
2018-05-18T09:58:19.570Z,966.91
2018-05-18T09:59:19.541Z,966.91
2018-05-18T10:00:19.564Z,966.89
2018-05-18T10:01:19.537Z,966.91
2018-05-18T10:02:19.537Z,966.91
2018-05-18T10:03:19.536Z,966.90
2018-05-18T10:04:19.560Z,966.91
2018-05-18T10:05:19.599Z,966.91
2018-05-18T10:06:21.083Z,966.92
2018-05-18T10:07:19.549Z,966.91
2018-05-18T10:08:19.546Z,966.96
2018-05-18T10:09:19.549Z,966.91
2018-05-18T10:10:19.546Z,966.93
2018-05-18T10:11:19.630Z,966.96
2018-05-18T10:12:19.598Z,966.97
2018-05-18T10:13:19.575Z,966.95
2018-05-18T10:14:19.555Z,966.91
2018-05-18T10:15:19.557Z,966.89
2018-05-18T10:16:19.562Z,966.89
2018-05-18T10:17:19.561Z,966.93
2018-05-18T10:18:19.565Z,967.00
2018-05-18T10:19:19.560Z,967.00
2018-05-18T10:20:19.565Z,966.99
2018-05-18T10:21:19.566Z,967.03
2018-05-18T10:22:19.575Z,967.07
2018-05-18T10:23:19.600Z,967.07
2018-05-18T10:24:19.576Z,967.11
2018-05-18T10:25:19.579Z,967.12
2018-05-18T10:26:19.579Z,967.10
2018-05-18T10:27:19.584Z,967.07
2018-05-18T10:28:19.587Z,967.05
2018-05-18T10:29:19.592Z,967.05
2018-05-18T10:30:19.594Z,967.07
2018-05-18T10:31:19.593Z,967.08
2018-05-18T10:32:19.623Z,967.03
2018-05-18T10:33:19.600Z,967.06
2018-05-18T10:34:19.602Z,967.03
2018-05-18T10:35:19.603Z,967.07
2018-05-18T10:36:19.605Z,967.05
2018-05-18T10:37:19.611Z,967.06
2018-05-18T10:38:19.638Z,967.05
2018-05-18T10:39:19.673Z,967.05
2018-05-18T10:40:19.649Z,967.03
2018-05-18T10:41:19.632Z,967.03
2018-05-18T10:42:19.627Z,967.06
2018-05-18T10:43:19.625Z,967.06
2018-05-18T10:44:19.681Z,967.02
2018-05-18T10:45:19.767Z,967.05
2018-05-18T10:46:19.787Z,967.00
2018-05-18T10:47:19.757Z,966.97
2018-05-18T10:48:19.706Z,966.98
2018-05-18T10:49:19.657Z,967.02
2018-05-18T10:50:19.648Z,967.02
2018-05-18T10:51:19.645Z,967.02
2018-05-18T10:52:19.654Z,967.08
2018-05-18T10:53:19.652Z,967.05
2018-05-18T10:54:19.655Z,967.01
2018-05-18T10:55:19.698Z,967.12
2018-05-18T10:56:19.662Z,967.01
2018-05-18T10:57:19.673Z,967.02
2018-05-18T10:58:19.715Z,966.94
2018-05-18T10:59:19.722Z,966.93
2018-05-18T11:00:19.677Z,966.91
2018-05-18T11:01:19.680Z,966.91
2018-05-18T11:02:19.683Z,966.92
2018-05-18T11:03:19.684Z,966.95
2018-05-18T11:04:19.690Z,966.94
2018-05-18T11:05:19.718Z,967.04
2018-05-18T11:06:19.720Z,966.99
2018-05-18T11:07:19.711Z,967.03
2018-05-18T11:08:19.707Z,966.95
2018-05-18T11:09:19.750Z,966.94
2018-05-18T11:10:19.715Z,966.94
2018-05-18T11:11:19.718Z,966.94
2018-05-18T11:12:19.719Z,966.87
2018-05-18T11:13:19.723Z,966.90
2018-05-18T11:14:19.763Z,966.90
2018-05-18T11:15:19.732Z,966.92
2018-05-18T11:16:19.753Z,966.90
2018-05-18T11:17:19.740Z,966.88
2018-05-18T11:18:19.743Z,966.86
2018-05-18T11:19:19.749Z,966.81
2018-05-18T11:20:19.755Z,966.86
2018-05-18T11:21:19.753Z,966.92
2018-05-18T11:22:19.760Z,966.89
2018-05-18T11:23:19.846Z,966.97
2018-05-18T11:24:19.765Z,966.89
2018-05-18T11:25:19.768Z,966.87
2018-05-18T11:26:19.871Z,966.93
2018-05-18T11:27:19.779Z,966.90
2018-05-18T11:28:19.780Z,966.84
2018-05-18T11:29:19.786Z,966.86
2018-05-18T11:30:19.966Z,966.84
2018-05-18T11:31:19.808Z,966.81
2018-05-18T11:32:19.803Z,966.79
2018-05-18T11:33:19.808Z,966.78
2018-05-18T11:34:19.809Z,966.76
2018-05-18T11:35:19.811Z,966.78
2018-05-18T11:36:19.822Z,966.83
2018-05-18T11:37:19.831Z,966.80
2018-05-18T11:38:19.823Z,966.80
2018-05-18T11:39:19.829Z,966.74
2018-05-18T11:40:19.841Z,966.79
2018-05-18T11:41:19.902Z,966.81
2018-05-18T11:42:19.852Z,966.86
2018-05-18T11:43:19.848Z,966.86
2018-05-18T11:44:19.849Z,966.80
2018-05-18T11:45:19.856Z,966.82
2018-05-18T11:46:19.868Z,966.78
2018-05-18T11:47:19.891Z,966.78
2018-05-18T11:48:19.879Z,966.74
2018-05-18T11:49:19.874Z,966.75
2018-05-18T11:50:19.881Z,966.75
2018-05-18T11:51:19.881Z,966.76
2018-05-18T11:52:19.885Z,966.72
2018-05-18T11:53:19.893Z,966.74
2018-05-18T11:54:19.893Z,966.72
2018-05-18T11:55:19.897Z,966.73
2018-05-18T11:56:19.900Z,966.70
2018-05-18T11:57:19.907Z,966.71
2018-05-18T11:58:19.913Z,966.64
2018-05-18T11:59:19.915Z,966.64
2018-05-18T12:00:19.920Z,966.63
2018-05-18T12:01:19.935Z,966.68
2018-05-18T12:02:19.974Z,966.66
2018-05-18T12:03:19.933Z,966.64
2018-05-18T12:04:19.935Z,966.65
2018-05-18T12:05:19.979Z,966.60
2018-05-18T12:06:19.942Z,966.60
2018-05-18T12:07:19.952Z,966.60
2018-05-18T12:08:19.984Z,966.57
2018-05-18T12:09:19.956Z,966.59
2018-05-18T12:10:19.956Z,966.59
2018-05-18T12:11:19.959Z,966.60
2018-05-18T12:12:19.973Z,966.64
2018-05-18T12:13:20.052Z,966.62
2018-05-18T12:14:19.972Z,966.61
2018-05-18T12:15:19.995Z,966.62
2018-05-18T12:16:19.988Z,966.64
2018-05-18T12:17:20.012Z,966.64
2018-05-18T12:18:21.600Z,966.61
2018-05-18T12:19:20.000Z,966.66
2018-05-18T12:20:21.627Z,966.62
2018-05-18T12:21:20.002Z,966.68
2018-05-18T12:22:20.012Z,966.67
2018-05-18T12:23:20.014Z,966.71
2018-05-18T12:24:20.015Z,966.71
2018-05-18T12:25:20.065Z,966.67
2018-05-18T12:26:20.022Z,966.73
2018-05-18T12:27:20.028Z,966.71
2018-05-18T12:28:20.093Z,966.66
2018-05-18T12:29:20.062Z,966.69
2018-05-18T12:30:20.039Z,966.63
2018-05-18T12:31:20.046Z,966.70
2018-05-18T12:32:20.054Z,966.66
2018-05-18T12:33:20.058Z,966.67
2018-05-18T12:34:20.062Z,966.65
2018-05-18T12:35:20.064Z,966.67
2018-05-18T12:36:20.093Z,966.69
2018-05-18T12:37:20.076Z,966.73
2018-05-18T12:38:20.082Z,966.67
2018-05-18T12:39:20.083Z,966.73
2018-05-18T12:40:28.750Z,966.64
2018-05-18T12:42:16.476Z,966.66
2018-05-18T12:43:15.851Z,966.66
2018-05-18T12:45:10.231Z,966.68
2018-05-18T12:46:10.472Z,966.70
2018-05-18T12:48:04.571Z,966.75
2018-05-18T12:49:04.574Z,966.70
2018-05-18T12:50:59.025Z,966.75
2018-05-18T12:51:58.954Z,966.74
2018-05-18T12:53:53.591Z,966.64
2018-05-18T12:54:53.517Z,966.66
2018-05-18T12:56:48.025Z,966.70
2018-05-18T12:57:47.989Z,966.69
2018-05-18T12:59:42.731Z,966.67
2018-05-18T13:00:42.702Z,966.74
2018-05-18T13:02:37.390Z,966.78
2018-05-18T13:03:37.382Z,966.72